Time;durP1;ratioP1;P1;durP2;ratioP2;P2;SDS_P1;SDS_P2;PMS_P1;PMS_P2;Temp;Humidity;BMP_temperature;BMP_pressure;BME280_temperature;BME280_humidity;BME280_pressure;Samples;Min_cycle;Max_cycle;Signal;HPM_P1;HPM_P2
2023/01/23 00:00:07;;;;;;;16.70;6.07;;;3.60;99.90;;;;;;5113396;28;20067;-91
2023/01/23 00:02:33;;;;;;;14.25;6.03;;;3.50;99.90;;;;;;5110351;28;20036;-90
2023/01/23 00:04:58;;;;;;;13.77;6.03;;;3.60;99.90;;;;;;5114211;28;20058;-90
2023/01/23 00:07:24;;;;;;;14.93;7.60;;;3.60;99.90;;;;;;5096906;28;20500;-90
2023/01/23 00:09:50;;;;;;;13.45;5.53;;;3.60;99.90;;;;;;5111346;28;20031;-90
2023/01/23 00:12:15;;;;;;;13.82;6.38;;;3.50;99.90;;;;;;5111953;28;20100;-89
2023/01/23 00:14:41;;;;;;;16.08;5.95;;;3.60;99.90;;;;;;5111948;28;20032;-89
2023/01/23 00:17:06;;;;;;;18.58;6.72;;;3.60;99.90;;;;;;5095299;28;20039;-90
2023/01/23 00:19:32;;;;;;;15.15;7.65;;;3.50;99.90;;;;;;5118456;27;20031;-89
2023/01/23 00:21:59;;;;;;;12.63;7.38;;;3.60;99.90;;;;;;5105861;27;20023;-90
2023/01/23 00:24:25;;;;;;;12.77;6.20;;;3.60;99.90;;;;;;5105277;27;20035;-90
2023/01/23 00:26:51;;;;;;;12.80;5.95;;;3.60;99.90;;;;;;5104953;27;20047;-90
2023/01/23 00:29:16;;;;;;;13.82;7.35;;;3.60;99.90;;;;;;5153244;27;20039;-91
2023/01/23 00:31:42;;;;;;;13.27;7.10;;;3.60;99.90;;;;;;5105096;27;20042;-90
2023/01/23 00:34:11;;;;;;;13.48;6.53;;;3.60;99.90;;;;;;5105333;27;20040;-90
2023/01/23 00:36:39;;;;;;;12.90;6.65;;;3.60;99.90;;;;;;5128165;27;20522;-90
2023/01/23 00:39:17;;;;;;;14.80;6.38;;;3.60;99.90;;;;;;5116545;27;20035;-90
2023/01/23 00:41:44;;;;;;;12.55;6.13;;;3.60;99.90;;;;;;5116072;27;20122;-91
2023/01/23 00:44:10;;;;;;;12.93;6.55;;;3.60;99.90;;;;;;5115792;28;20103;-90
2023/01/23 00:46:35;;;;;;;13.10;6.43;;;3.60;99.90;;;;;;5115800;27;20046;-90
2023/01/23 00:49:01;;;;;;;12.50;6.20;;;3.60;99.90;;;;;;5116324;27;20087;-91
2023/01/23 00:51:27;;;;;;;12.77;6.53;;;3.60;99.90;;;;;;5116321;27;20043;-91
2023/01/23 00:53:53;;;;;;;14.10;5.78;;;3.60;99.90;;;;;;5132835;27;20046;-90
2023/01/23 00:56:19;;;;;;;15.77;6.40;;;3.60;99.90;;;;;;5133051;27;20043;-90
2023/01/23 00:58:45;;;;;;;14.38;6.05;;;3.60;99.90;;;;;;5116232;27;20392;-90
2023/01/23 01:01:10;;;;;;;12.90;5.55;;;3.60;99.90;;;;;;5133394;27;20501;-91
2023/01/23 01:03:37;;;;;;;12.32;5.88;;;3.60;99.90;;;;;;5115601;27;20031;-90
2023/01/23 01:06:03;;;;;;;12.98;5.75;;;3.60;99.90;;;;;;5133071;27;20038;-91
2023/01/23 01:08:29;;;;;;;15.07;6.72;;;3.70;99.90;;;;;;5115889;27;20434;-90
2023/01/23 01:10:54;;;;;;;11.85;5.72;;;3.70;99.90;;;;;;5115183;27;20039;-91
2023/01/23 01:13:22;;;;;;;16.77;6.50;;;3.70;99.90;;;;;;5095303;28;20047;-91
2023/01/23 01:15:49;;;;;;;14.45;6.28;;;3.70;99.90;;;;;;5111986;28;20504;-91
2023/01/23 01:18:16;;;;;;;12.85;6.38;;;3.70;99.90;;;;;;5112623;28;20171;-91
2023/01/23 01:20:42;;;;;;;14.45;5.60;;;3.70;99.90;;;;;;5095455;28;20122;-91
2023/01/23 01:23:08;;;;;;;13.55;6.28;;;3.70;99.90;;;;;;5094774;28;20027;-90
2023/01/23 01:25:34;;;;;;;12.65;6.07;;;3.70;99.90;;;;;;5095576;28;20034;-91
2023/01/23 01:27:59;;;;;;;12.77;6.10;;;3.70;99.90;;;;;;5095324;28;20492;-91
2023/01/23 01:30:26;;;;;;;11.65;5.30;;;3.70;99.90;;;;;;5095058;28;20087;-92
2023/01/23 01:32:52;;;;;;;15.07;6.65;;;3.70;99.90;;;;;;5094927;28;20133;-92
2023/01/23 01:35:19;;;;;;;11.77;6.30;;;3.70;99.90;;;;;;5112059;28;20100;-92
2023/01/23 01:37:44;;;;;;;11.35;5.65;;;3.70;99.90;;;;;;5111854;28;20084;-90
2023/01/23 01:40:19;;;;;;;12.23;6.22;;;3.70;99.90;;;;;;5095234;28;20118;-90
2023/01/23 01:42:58;;;;;;;15.38;5.93;;;3.70;99.90;;;;;;5094854;28;20080;-90
2023/01/23 01:46:05;;;;;;;13.55;6.00;;;3.70;99.90;;;;;;5112148;28;20036;-90
2023/01/23 01:48:56;;;;;;;13.32;6.03;;;3.70;99.90;;;;;;5095055;28;20035;-90
2023/01/23 01:51:49;;;;;;;13.07;5.80;;;3.70;99.90;;;;;;5098339;28;20125;-89
2023/01/23 01:54:33;;;;;;;11.65;5.60;;;3.70;99.90;;;;;;5111193;28;20051;-89
2023/01/23 01:57:10;;;;;;;13.75;6.05;;;3.70;99.90;;;;;;5111270;28;20050;-89
2023/01/23 02:00:04;;;;;;;14.10;5.68;;;3.70;99.90;;;;;;5111861;28;20039;-91
2023/01/23 02:02:43;;;;;;;14.52;5.78;;;3.70;99.90;;;;;;5093854;28;20035;-90
2023/01/23 02:05:17;;;;;;;13.45;5.70;;;3.70;99.90;;;;;;5111765;28;20072;-91
2023/01/23 02:07:53;;;;;;;11.25;5.43;;;3.70;99.90;;;;;;5111366;28;20091;-90
2023/01/23 02:10:19;;;;;;;11.52;5.75;;;3.70;99.90;;;;;;5094811;28;20053;-90
2023/01/23 02:12:46;;;;;;;12.35;6.13;;;3.70;99.90;;;;;;5093808;28;20047;-90
2023/01/23 02:15:13;;;;;;;15.00;6.00;;;3.70;99.90;;;;;;5111442;28;20051;-90
2023/01/23 02:17:39;;;;;;;13.70;6.13;;;3.70;99.90;;;;;;5094188;28;20043;-90
2023/01/23 02:20:19;;;;;;;16.92;7.22;;;3.70;99.90;;;;;;5094635;28;20070;-90
2023/01/23 02:23:04;;;;;;;13.75;6.07;;;3.70;99.90;;;;;;5094142;28;20097;-91
2023/01/23 02:25:42;;;;;;;15.50;6.72;;;3.70;99.90;;;;;;5094251;28;20112;-91
2023/01/23 02:28:09;;;;;;;12.00;6.57;;;3.70;99.90;;;;;;5094111;28;20043;-90
2023/01/23 02:30:39;;;;;;;12.55;6.32;;;3.70;99.90;;;;;;5110848;28;20047;-90
2023/01/23 02:33:09;;;;;;;16.15;6.68;;;3.70;99.90;;;;;;5110788;28;20040;-90
2023/01/23 02:35:36;;;;;;;16.45;6.93;;;3.70;99.90;;;;;;5094084;28;20039;-90
2023/01/23 02:38:04;;;;;;;18.15;6.85;;;3.70;99.90;;;;;;5093856;28;20040;-90
2023/01/23 02:40:35;;;;;;;13.52;7.13;;;3.70;99.90;;;;;;5093829;28;20040;-90
2023/01/23 02:43:03;;;;;;;13.80;7.05;;;3.70;99.90;;;;;;5110517;28;20515;-90
2023/01/23 02:45:30;;;;;;;15.02;7.40;;;3.70;99.90;;;;;;5110853;28;20085;-90
2023/01/23 02:47:56;;;;;;;15.52;6.95;;;3.70;99.90;;;;;;5093910;28;20065;-90
2023/01/23 02:50:22;;;;;;;14.25;7.15;;;3.70;99.90;;;;;;5093783;28;20038;-90
2023/01/23 02:52:49;;;;;;;16.92;7.15;;;3.80;99.90;;;;;;5093332;28;20043;-90
2023/01/23 02:55:32;;;;;;;17.63;7.65;;;3.70;99.90;;;;;;5094017;28;20127;-90
2023/01/23 03:00:42;;;;;;;15.23;7.57;;;3.70;99.90;;;;;;5110725;28;20036;-90
2023/01/23 03:03:08;;;;;;;15.18;6.93;;;3.70;99.90;;;;;;5093237;28;20036;-90
2023/01/23 03:05:34;;;;;;;13.93;7.18;;;3.70;99.90;;;;;;5110808;28;20036;-90
2023/01/23 03:07:59;;;;;;;15.75;7.07;;;3.70;99.90;;;;;;5094359;28;20039;-90
2023/01/23 03:10:25;;;;;;;13.95;7.32;;;3.70;99.90;;;;;;5098350;28;20051;-90
2023/01/23 03:12:51;;;;;;;14.43;6.50;;;3.80;99.90;;;;;;5114726;28;20055;-90
2023/01/23 03:15:17;;;;;;;14.85;6.75;;;3.70;99.90;;;;;;5114768;28;20047;-90
2023/01/23 03:17:42;;;;;;;13.93;6.35;;;3.70;99.90;;;;;;5114565;28;20047;-90
2023/01/23 03:20:09;;;;;;;14.55;7.05;;;3.70;99.90;;;;;;5097580;28;20031;-90
2023/01/23 03:22:34;;;;;;;14.55;7.13;;;3.70;99.90;;;;;;5097394;28;20039;-90
2023/01/23 03:25:00;;;;;;;13.18;7.13;;;3.70;99.90;;;;;;5097511;28;20468;-90
2023/01/23 03:27:26;;;;;;;15.38;7.80;;;3.80;99.90;;;;;;5114883;28;20040;-90
2023/01/23 03:32:37;;;;;;;13.45;6.68;;;3.70;99.90;;;;;;5114041;28;20048;-90
2023/01/23 03:35:04;;;;;;;12.23;7.25;;;3.70;99.90;;;;;;5097391;28;20036;-90
2023/01/23 03:37:29;;;;;;;15.02;6.68;;;3.80;99.90;;;;;;5097118;28;20047;-90
2023/01/23 03:42:39;;;;;;;15.20;6.47;;;3.80;99.90;;;;;;5113591;28;20101;-90
2023/01/23 03:45:06;;;;;;;16.40;6.82;;;3.80;99.90;;;;;;5114436;28;20468;-90
2023/01/23 03:47:32;;;;;;;13.45;7.35;;;3.70;99.90;;;;;;5097347;28;20055;-90
2023/01/23 03:49:58;;;;;;;15.05;7.32;;;3.70;99.90;;;;;;5097398;28;20046;-90
2023/01/23 03:52:24;;;;;;;15.52;7.35;;;3.80;99.90;;;;;;5096558;28;20035;-90
2023/01/23 03:54:50;;;;;;;12.35;6.80;;;3.70;99.90;;;;;;5096821;28;20050;-90
2023/01/23 03:57:15;;;;;;;14.48;6.43;;;3.70;99.90;;;;;;5096763;28;20044;-90
2023/01/23 03:59:41;;;;;;;17.90;7.53;;;3.80;99.90;;;;;;5096765;28;20035;-90
2023/01/23 04:02:06;;;;;;;14.82;7.53;;;3.80;99.90;;;;;;5096391;28;20089;-90
2023/01/23 04:04:33;;;;;;;14.70;7.40;;;3.80;99.90;;;;;;5097113;28;20078;-90
2023/01/23 04:06:59;;;;;;;13.70;6.45;;;3.70;99.90;;;;;;5114244;28;20058;-90
2023/01/23 04:09:26;;;;;;;19.25;7.80;;;3.80;99.90;;;;;;5113708;28;20462;-90
2023/01/23 04:11:53;;;;;;;14.38;7.57;;;3.80;99.90;;;;;;5113569;28;20411;-90
2023/01/23 04:14:20;;;;;;;16.27;7.75;;;3.80;99.90;;;;;;5096822;28;20088;-90
2023/01/23 04:16:45;;;;;;;14.23;7.05;;;3.80;99.90;;;;;;5096368;28;20047;-90
2023/01/23 04:19:11;;;;;;;13.15;7.15;;;3.80;99.90;;;;;;5096240;28;20032;-90
2023/01/23 04:21:37;;;;;;;16.20;7.72;;;3.80;99.90;;;;;;5096288;28;20036;-90
2023/01/23 04:24:02;;;;;;;14.23;7.53;;;3.80;99.90;;;;;;5096346;28;20386;-90
2023/01/23 04:26:28;;;;;;;15.77;7.07;;;3.80;99.90;;;;;;5096498;28;20081;-90
2023/01/23 04:28:53;;;;;;;12.32;7.10;;;3.80;99.90;;;;;;5113622;28;20440;-90
2023/01/23 04:31:19;;;;;;;14.20;8.10;;;3.80;99.90;;;;;;5096326;28;20474;-90
2023/01/23 04:33:44;;;;;;;12.00;6.47;;;3.80;99.90;;;;;;5113187;28;20134;-90
2023/01/23 04:36:10;;;;;;;15.45;7.53;;;3.80;99.90;;;;;;5113259;28;20040;-90
2023/01/23 04:38:36;;;;;;;15.38;8.52;;;3.80;99.90;;;;;;5095975;28;20032;-91
2023/01/23 04:41:03;;;;;;;17.02;8.20;;;3.70;99.90;;;;;;5096265;28;20038;-90
2023/01/23 04:43:29;;;;;;;15.50;7.97;;;3.70;99.90;;;;;;5113117;28;20032;-90
2023/01/23 04:45:57;;;;;;;15.43;7.40;;;3.80;99.90;;;;;;5113167;28;20044;-90
2023/01/23 04:48:23;;;;;;;13.52;6.88;;;3.80;99.90;;;;;;5113004;28;20126;-90
2023/01/23 04:50:50;;;;;;;14.95;6.90;;;3.80;99.90;;;;;;5095793;28;20043;-90
2023/01/23 04:53:15;;;;;;;13.80;7.47;;;3.70;99.90;;;;;;5095654;28;20493;-90
2023/01/23 04:55:41;;;;;;;15.05;7.63;;;3.70;99.90;;;;;;5112650;28;20081;-90
2023/01/23 04:58:10;;;;;;;17.10;7.93;;;3.70;99.90;;;;;;5112936;28;20039;-90
2023/01/23 05:00:36;;;;;;;15.65;7.43;;;3.70;99.90;;;;;;5112487;28;20032;-90
2023/01/23 05:03:01;;;;;;;17.35;7.10;;;3.80;99.90;;;;;;5095681;28;20043;-90
2023/01/23 05:05:27;;;;;;;15.23;6.95;;;3.70;99.90;;;;;;5112835;28;20073;-90
2023/01/23 05:07:53;;;;;;;14.35;7.03;;;3.70;99.90;;;;;;5095429;28;20111;-90
2023/01/23 05:10:19;;;;;;;13.20;6.95;;;3.70;99.90;;;;;;5095529;28;20126;-90
2023/01/23 05:12:44;;;;;;;16.05;8.05;;;3.70;99.90;;;;;;5095058;28;20040;-90
2023/01/23 05:15:10;;;;;;;16.02;7.32;;;3.70;99.90;;;;;;5095731;28;20028;-90
2023/01/23 05:17:36;;;;;;;13.55;7.63;;;3.70;99.90;;;;;;5095196;28;20092;-90
2023/01/23 05:20:02;;;;;;;17.65;8.00;;;3.70;99.90;;;;;;5095354;28;20118;-90
2023/01/23 05:22:28;;;;;;;15.13;7.55;;;3.70;99.90;;;;;;5094894;28;20043;-90
2023/01/23 05:24:53;;;;;;;15.00;8.00;;;3.70;99.90;;;;;;5112201;28;20032;-90
2023/01/23 05:27:19;;;;;;;13.98;7.53;;;3.70;99.90;;;;;;5112507;28;20046;-90
2023/01/23 05:29:44;;;;;;;15.43;8.60;;;3.70;99.90;;;;;;5095010;28;20035;-90
2023/01/23 05:32:10;;;;;;;14.60;7.43;;;3.70;99.90;;;;;;5110875;28;20043;-89
2023/01/23 05:34:36;;;;;;;16.17;7.65;;;3.70;99.90;;;;;;5095202;28;20043;-90
2023/01/23 05:37:01;;;;;;;13.05;7.05;;;3.70;99.90;;;;;;5111977;28;20118;-89
2023/01/23 05:39:27;;;;;;;13.68;7.60;;;3.70;99.90;;;;;;5095130;28;20090;-90
2023/01/23 05:41:52;;;;;;;13.52;7.18;;;3.70;99.90;;;;;;5095055;28;20400;-90
2023/01/23 05:44:18;;;;;;;15.20;7.57;;;3.70;99.90;;;;;;5094699;28;20035;-90
2023/01/23 05:46:44;;;;;;;14.40;7.70;;;3.70;99.90;;;;;;5094704;28;20047;-90
2023/01/23 05:49:09;;;;;;;14.05;6.75;;;3.70;99.90;;;;;;5095049;28;20039;-90
2023/01/23 05:51:35;;;;;;;16.25;7.60;;;3.70;99.90;;;;;;5111509;28;20485;-90
2023/01/23 05:54:01;;;;;;;14.80;7.93;;;3.70;99.90;;;;;;5094103;28;20039;-90
2023/01/23 05:56:27;;;;;;;12.73;6.40;;;3.70;99.90;;;;;;5111890;28;20042;-90
2023/01/23 05:58:53;;;;;;;13.90;7.15;;;3.70;99.90;;;;;;5094994;28;20457;-90
2023/01/23 06:01:19;;;;;;;14.40;6.68;;;3.70;99.90;;;;;;5111638;28;20568;-90
2023/01/23 06:03:45;;;;;;;14.38;6.15;;;3.70;99.90;;;;;;5110883;28;20118;-91
2023/01/23 06:06:11;;;;;;;15.45;6.85;;;3.70;99.90;;;;;;5111579;28;20040;-90
2023/01/23 06:08:37;;;;;;;13.75;6.65;;;3.70;99.90;;;;;;5094586;28;20101;-90
2023/01/23 06:11:03;;;;;;;13.85;6.63;;;3.70;99.90;;;;;;5111446;28;20091;-91
2023/01/23 06:13:29;;;;;;;16.23;7.10;;;3.70;99.90;;;;;;5094010;28;20039;-90
2023/01/23 06:15:55;;;;;;;14.55;6.13;;;3.70;99.90;;;;;;5094357;28;20040;-90
2023/01/23 06:18:21;;;;;;;15.02;6.90;;;3.70;99.90;;;;;;5094396;28;20500;-90
2023/01/23 06:20:47;;;;;;;15.40;7.75;;;3.70;99.90;;;;;;5094163;28;20032;-90
2023/01/23 06:23:13;;;;;;;14.10;7.63;;;3.70;99.90;;;;;;5093517;28;20036;-90
2023/01/23 06:25:39;;;;;;;12.88;5.75;;;3.70;99.90;;;;;;5094535;28;20397;-90
2023/01/23 06:28:05;;;;;;;14.80;6.93;;;3.70;99.90;;;;;;5094592;28;20044;-90
2023/01/23 06:30:30;;;;;;;12.13;6.15;;;3.70;99.90;;;;;;5094322;28;20044;-90
2023/01/23 06:32:56;;;;;;;16.80;7.13;;;3.70;99.90;;;;;;5093838;28;20042;-90
2023/01/23 06:35:21;;;;;;;14.60;6.75;;;3.70;99.90;;;;;;5110839;28;20038;-90
2023/01/23 06:37:47;;;;;;;12.88;6.88;;;3.70;99.90;;;;;;5110887;28;20066;-90
2023/01/23 06:40:13;;;;;;;14.63;6.85;;;3.70;99.90;;;;;;5110734;28;20042;-91
2023/01/23 06:42:40;;;;;;;12.98;7.00;;;3.70;99.90;;;;;;5110213;28;20492;-90
2023/01/23 06:45:07;;;;;;;16.65;7.43;;;3.70;99.90;;;;;;5094430;28;20044;-90
2023/01/23 06:47:33;;;;;;;13.88;7.55;;;3.70;99.90;;;;;;5110772;28;20096;-90
2023/01/23 06:50:00;;;;;;;15.43;6.15;;;3.70;99.90;;;;;;5093896;28;20044;-90
2023/01/23 06:52:26;;;;;;;11.95;6.40;;;3.70;99.90;;;;;;5110609;28;20074;-90
2023/01/23 06:54:52;;;;;;;16.73;6.80;;;3.70;99.90;;;;;;5111255;28;20039;-90
2023/01/23 06:57:18;;;;;;;14.38;7.05;;;3.70;99.90;;;;;;5094069;28;20043;-90
2023/01/23 06:59:43;;;;;;;13.05;6.85;;;3.70;99.90;;;;;;5093882;28;20387;-90
2023/01/23 07:02:10;;;;;;;15.55;7.68;;;3.70;99.90;;;;;;5110706;28;20035;-90
2023/01/23 07:04:36;;;;;;;13.25;8.07;;;3.70;99.90;;;;;;5093959;28;20481;-91
2023/01/23 07:07:02;;;;;;;15.98;8.52;;;3.70;99.90;;;;;;5093566;28;20092;-89
2023/01/23 07:09:27;;;;;;;15.75;7.07;;;3.70;99.90;;;;;;5110622;28;20036;-90
2023/01/23 07:11:53;;;;;;;13.80;8.02;;;3.70;99.90;;;;;;5110958;28;20052;-90
2023/01/23 07:14:19;;;;;;;16.02;7.68;;;3.70;99.90;;;;;;5093565;28;20036;-90
2023/01/23 07:16:45;;;;;;;14.63;7.93;;;3.70;99.90;;;;;;5093672;28;20071;-90
2023/01/23 07:19:10;;;;;;;15.00;7.95;;;3.70;99.90;;;;;;5110892;28;20557;-91
2023/01/23 07:21:36;;;;;;;13.93;7.70;;;3.70;99.90;;;;;;5093843;28;20045;-91
2023/01/23 07:24:01;;;;;;;13.43;7.00;;;3.70;99.90;;;;;;5109312;28;20131;-91
2023/01/23 07:26:27;;;;;;;14.68;7.57;;;3.70;99.90;;;;;;5093659;28;20054;-91
2023/01/23 07:28:53;;;;;;;13.90;7.57;;;3.70;99.90;;;;;;5093786;28;20404;-91
2023/01/23 07:31:19;;;;;;;12.88;6.50;;;3.70;99.90;;;;;;5110712;28;20074;-90
2023/01/23 07:33:44;;;;;;;13.48;7.80;;;3.70;99.90;;;;;;5093089;28;20036;-90
2023/01/23 07:36:13;;;;;;;13.13;6.55;;;3.70;99.90;;;;;;5110694;28;20046;-90
2023/01/23 07:38:39;;;;;;;16.70;6.95;;;3.70;99.90;;;;;;5093494;28;20043;-90
2023/01/23 07:41:05;;;;;;;14.98;6.43;;;3.70;99.90;;;;;;5110523;28;20084;-90
2023/01/23 07:43:30;;;;;;;17.10;7.10;;;3.70;99.90;;;;;;5093164;28;20071;-90
2023/01/23 07:45:59;;;;;;;15.02;6.50;;;3.70;99.90;;;;;;5093796;28;20126;-90
2023/01/23 07:48:25;;;;;;;15.88;8.23;;;3.70;99.90;;;;;;5093478;28;20035;-90
2023/01/23 07:50:51;;;;;;;12.30;7.70;;;3.70;99.90;;;;;;5110125;28;20545;-90
2023/01/23 07:53:16;;;;;;;13.27;6.97;;;3.80;99.90;;;;;;5093220;28;20039;-90
2023/01/23 07:55:42;;;;;;;16.38;8.30;;;3.80;99.90;;;;;;5096684;28;20031;-91
2023/01/23 07:58:08;;;;;;;14.38;7.55;;;3.80;99.90;;;;;;5097032;28;20039;-90
2023/01/23 08:00:33;;;;;;;13.90;7.72;;;3.80;99.90;;;;;;5114217;28;20040;-90
2023/01/23 08:02:59;;;;;;;14.43;8.30;;;3.80;99.90;;;;;;5096478;28;20034;-91
2023/01/23 08:05:25;;;;;;;15.85;8.23;;;3.80;99.90;;;;;;5114196;28;20039;-92
2023/01/23 08:07:51;;;;;;;13.23;7.25;;;3.80;99.90;;;;;;5113655;28;20450;-91
2023/01/23 08:10:17;;;;;;;16.25;8.02;;;3.80;99.90;;;;;;5097175;28;20040;-91
2023/01/23 08:12:43;;;;;;;15.98;8.80;;;3.80;99.90;;;;;;5096494;28;20061;-91
2023/01/23 08:15:09;;;;;;;15.00;7.43;;;3.80;99.90;;;;;;5096675;28;20414;-91
2023/01/23 08:17:35;;;;;;;14.55;7.22;;;3.80;99.90;;;;;;5096360;28;20123;-90
2023/01/23 08:20:01;;;;;;;14.23;8.13;;;3.80;99.90;;;;;;5096555;28;20046;-90
2023/01/23 08:22:26;;;;;;;13.90;7.75;;;3.80;99.90;;;;;;5113206;28;20036;-90
2023/01/23 08:24:52;;;;;;;13.70;7.80;;;3.80;99.90;;;;;;5096798;28;20039;-90
2023/01/23 08:27:18;;;;;;;13.90;7.47;;;3.90;99.90;;;;;;5113468;28;20039;-92
2023/01/23 08:29:43;;;;;;;14.45;8.95;;;3.90;99.90;;;;;;5096771;28;20051;-89
2023/01/23 08:32:09;;;;;;;16.85;8.18;;;3.90;99.90;;;;;;5113028;28;20440;-91
2023/01/23 08:34:34;;;;;;;17.05;8.43;;;3.90;99.90;;;;;;5096474;28;20043;-91
2023/01/23 08:37:00;;;;;;;14.10;9.82;;;3.90;99.90;;;;;;5113494;28;20039;-90
2023/01/23 08:39:26;;;;;;;16.65;8.27;;;4.00;99.90;;;;;;5096390;28;20473;-91
2023/01/23 08:41:51;;;;;;;14.25;8.35;;;4.00;99.90;;;;;;5096133;28;20059;-91
2023/01/23 08:44:17;;;;;;;17.40;7.97;;;4.00;99.90;;;;;;5112995;28;20386;-91
2023/01/23 08:46:44;;;;;;;14.38;7.25;;;4.00;99.90;;;;;;5113137;28;20043;-91
2023/01/23 08:49:10;;;;;;;13.50;7.18;;;4.00;99.90;;;;;;5095940;28;20043;-91
2023/01/23 08:51:36;;;;;;;13.40;7.43;;;4.00;99.90;;;;;;5112804;28;20050;-91
2023/01/23 08:54:02;;;;;;;15.55;7.38;;;4.00;99.90;;;;;;5095643;28;20074;-91
2023/01/23 08:56:27;;;;;;;14.50;7.47;;;4.10;99.90;;;;;;5112902;28;20481;-91
2023/01/23 08:58:53;;;;;;;15.35;9.65;;;4.10;99.90;;;;;;5095842;28;20071;-90
2023/01/23 09:01:21;;;;;;;14.55;8.75;;;4.10;99.90;;;;;;5095359;28;20063;-91
2023/01/23 09:03:47;;;;;;;19.15;9.85;;;4.10;99.90;;;;;;5095066;28;20118;-91
2023/01/23 09:06:15;;;;;;;13.93;7.45;;;4.10;99.90;;;;;;5111424;28;20438;-91
2023/01/23 09:08:41;;;;;;;12.60;8.30;;;4.20;99.90;;;;;;5112580;28;20129;-90
2023/01/23 09:11:09;;;;;;;14.60;9.07;;;4.20;99.90;;;;;;5112272;28;20051;-91
2023/01/23 09:13:35;;;;;;;16.10;10.27;;;4.20;99.90;;;;;;5094713;28;20032;-90
2023/01/23 09:16:01;;;;;;;16.23;8.85;;;4.20;99.90;;;;;;5111866;28;20118;-90
2023/01/23 09:18:27;;;;;;;17.13;8.98;;;4.20;99.90;;;;;;5111835;28;20028;-90
2023/01/23 09:20:53;;;;;;;15.30;9.18;;;4.20;99.90;;;;;;5093471;28;20400;-91
2023/01/23 09:23:19;;;;;;;17.45;8.55;;;4.30;99.90;;;;;;5089795;28;20036;-91
2023/01/23 09:25:45;;;;;;;16.75;8.60;;;4.30;99.90;;;;;;5109778;28;20393;-91
2023/01/23 09:28:11;;;;;;;15.68;8.73;;;4.30;99.90;;;;;;5092194;28;20050;-90
2023/01/23 09:30:37;;;;;;;13.40;7.20;;;4.30;99.90;;;;;;5109271;28;20035;-91
2023/01/23 09:33:03;;;;;;;16.10;7.82;;;4.30;99.90;;;;;;5091979;28;20408;-91
2023/01/23 09:35:29;;;;;;;15.57;7.85;;;4.30;99.90;;;;;;5109313;28;20035;-90
2023/01/23 09:38:00;;;;;;;13.07;6.97;;;4.30;99.90;;;;;;5073139;28;20413;-90
2023/01/23 09:40:50;;;;;;;13.02;7.47;;;4.40;99.90;;;;;;5091146;28;20444;-90
2023/01/23 09:43:24;;;;;;;13.48;8.80;;;4.40;99.90;;;;;;5090687;28;20040;-90
2023/01/23 09:46:08;;;;;;;14.60;7.50;;;4.40;99.90;;;;;;5073338;28;20032;-90
2023/01/23 09:48:46;;;;;;;11.10;6.75;;;4.40;99.90;;;;;;5074369;28;20051;-90
2023/01/23 09:51:27;;;;;;;11.98;7.22;;;4.40;99.90;;;;;;5073891;28;20036;-91
2023/01/23 09:53:59;;;;;;;12.32;6.07;;;4.50;99.90;;;;;;5073838;28;20040;-90
2023/01/23 09:56:32;;;;;;;13.00;5.83;;;4.50;99.90;;;;;;5073876;28;20078;-91
2023/01/23 09:59:09;;;;;;;16.60;7.20;;;4.50;99.90;;;;;;5073892;28;20043;-90
2023/01/23 10:01:36;;;;;;;13.10;7.72;;;4.50;99.90;;;;;;5073613;28;20116;-90
2023/01/23 10:04:03;;;;;;;12.75;6.70;;;4.50;99.90;;;;;;5073538;28;20036;-90
2023/01/23 10:06:31;;;;;;;11.75;6.20;;;4.50;99.90;;;;;;5090753;28;20043;-90
2023/01/23 10:09:19;;;;;;;11.40;7.35;;;4.50;99.90;;;;;;5073686;28;20487;-90
2023/01/23 10:11:54;;;;;;;11.57;6.60;;;4.50;99.90;;;;;;5073509;28;20036;-89
2023/01/23 10:14:35;;;;;;;12.80;6.90;;;4.60;99.90;;;;;;5090315;28;20046;-90
2023/01/23 10:17:22;;;;;;;16.60;6.80;;;4.60;99.90;;;;;;5124126;27;20048;-90
2023/01/23 10:20:05;;;;;;;13.15;6.38;;;4.60;99.90;;;;;;5073514;28;20044;-90
2023/01/23 10:22:40;;;;;;;13.52;6.97;;;4.60;99.90;;;;;;5073142;28;20097;-90
2023/01/23 10:25:28;;;;;;;14.35;6.72;;;4.70;99.90;;;;;;5073704;28;20120;-90
2023/01/23 10:28:08;;;;;;;13.05;7.15;;;4.70;99.90;;;;;;5073430;28;20040;-90
2023/01/23 10:30:37;;;;;;;14.30;7.32;;;4.70;99.90;;;;;;5073488;28;20036;-90
2023/01/23 10:33:18;;;;;;;14.35;7.72;;;4.70;99.90;;;;;;5090264;28;20102;-90
2023/01/23 10:36:00;;;;;;;12.32;6.47;;;4.70;99.90;;;;;;5124489;27;20401;-90
2023/01/23 10:38:42;;;;;;;16.87;7.33;;;4.70;99.90;;;;;;5073288;28;20046;-90
2023/01/23 10:41:12;;;;;;;13.38;6.78;;;4.70;99.90;;;;;;5107266;28;20550;-91
2023/01/23 10:43:39;;;;;;;13.95;6.95;;;4.80;99.90;;;;;;5089833;28;20090;-90
2023/01/23 10:46:42;;;;;;;13.35;6.18;;;4.80;99.90;;;;;;5107060;28;20078;-90
2023/01/23 10:49:08;;;;;;;11.50;6.13;;;4.80;99.90;;;;;;5015597;28;20534;-90
2023/01/23 10:51:36;;;;;;;12.65;6.68;;;4.80;99.90;;;;;;5015172;28;20120;-90
2023/01/23 10:54:26;;;;;;;12.05;6.70;;;4.80;99.90;;;;;;5064159;28;20142;-89
2023/01/23 10:56:53;;;;;;;13.40;5.90;;;4.80;99.90;;;;;;5003548;28;20088;-90
2023/01/23 10:59:30;;;;;;;12.18;6.38;;;4.80;99.90;;;;;;5037437;28;20045;-90
2023/01/23 11:02:31;;;;;;;12.10;6.10;;;4.90;99.90;;;;;;5003099;28;20034;-91
2023/01/23 11:04:58;;;;;;;14.13;6.45;;;5.00;99.90;;;;;;5005211;28;20032;-91
2023/01/23 11:07:29;;;;;;;14.05;7.00;;;5.00;99.90;;;;;;5004352;28;20609;-90
2023/01/23 11:09:56;;;;;;;12.02;6.57;;;5.00;99.90;;;;;;5036550;28;20252;-90
2023/01/23 11:12:32;;;;;;;12.50;6.60;;;5.10;99.90;;;;;;5004325;28;20052;-90
2023/01/23 11:15:16;;;;;;;11.95;6.72;;;5.10;99.90;;;;;;5017637;28;20041;-90
2023/01/23 11:17:42;;;;;;;11.98;6.47;;;5.10;99.90;;;;;;5036716;28;20049;-90
2023/01/23 11:20:23;;;;;;;14.95;6.28;;;5.10;99.90;;;;;;5003811;28;20049;-91
2023/01/23 11:23:00;;;;;;;13.25;5.90;;;5.10;99.90;;;;;;4976033;28;20038;-90
2023/01/23 11:25:35;;;;;;;11.32;6.50;;;5.20;99.90;;;;;;5044965;28;20048;-90
2023/01/23 11:28:25;;;;;;;13.82;6.57;;;5.20;99.90;;;;;;5093012;28;20512;-90
2023/01/23 11:31:10;;;;;;;11.98;5.88;;;5.20;99.90;;;;;;5083821;28;20120;-90
2023/01/23 11:33:51;;;;;;;16.60;6.60;;;5.20;99.90;;;;;;5113740;28;20088;-90
2023/01/23 11:36:16;;;;;;;13.32;5.85;;;5.20;99.90;;;;;;5113895;28;20054;-91
2023/01/23 11:38:56;;;;;;;13.07;6.88;;;5.20;99.90;;;;;;5113945;28;20066;-90
2023/01/23 11:41:30;;;;;;;12.98;6.65;;;5.20;99.90;;;;;;5095694;28;20035;-91
2023/01/23 11:43:56;;;;;;;13.98;6.72;;;5.20;99.90;;;;;;5113526;28;20107;-90
2023/01/23 11:46:44;;;;;;;13.40;6.07;;;5.20;99.90;;;;;;5097043;28;20071;-91
2023/01/23 11:49:39;;;;;;;15.23;6.72;;;5.20;99.90;;;;;;5096019;28;20069;-90
2023/01/23 11:52:17;;;;;;;12.75;5.68;;;5.20;99.90;;;;;;5096634;28;20047;-90
2023/01/23 11:54:52;;;;;;;12.43;6.10;;;5.20;99.90;;;;;;5096635;28;20047;-91
2023/01/23 11:57:42;;;;;;;14.63;6.05;;;5.20;99.90;;;;;;5096313;28;20039;-90
2023/01/23 12:00:42;;;;;;;12.50;6.70;;;5.20;99.90;;;;;;5095714;28;20042;-91
2023/01/23 12:03:14;;;;;;;14.20;6.70;;;5.20;99.90;;;;;;5113808;28;20039;-91
2023/01/23 12:06:08;;;;;;;12.80;6.70;;;5.20;99.90;;;;;;5096773;28;20036;-91
2023/01/23 12:09:14;;;;;;;13.13;6.65;;;5.20;99.90;;;;;;5026033;28;20447;-91
2023/01/23 12:11:55;;;;;;;11.52;6.18;;;5.20;99.90;;;;;;5096632;28;20524;-91
2023/01/23 12:14:36;;;;;;;11.93;6.25;;;5.30;99.90;;;;;;5097070;28;20577;-91
2023/01/23 12:17:12;;;;;;;14.43;6.68;;;5.20;99.90;;;;;;5096690;28;20040;-91
2023/01/23 12:19:49;;;;;;;11.35;6.30;;;5.30;99.90;;;;;;5113961;28;20039;-91
2023/01/23 12:22:46;;;;;;;13.75;6.63;;;5.30;99.90;;;;;;5113334;28;20074;-91
2023/01/23 12:25:17;;;;;;;11.38;6.97;;;5.30;99.90;;;;;;5113951;28;20040;-91
2023/01/23 12:27:46;;;;;;;12.80;6.70;;;5.30;99.90;;;;;;5096819;28;20048;-91
2023/01/23 12:30:27;;;;;;;12.43;6.05;;;5.30;99.90;;;;;;5096738;28;20553;-91
2023/01/23 12:33:19;;;;;;;14.07;6.88;;;5.30;99.90;;;;;;5113199;28;20040;-91
2023/01/23 12:35:59;;;;;;;13.45;7.15;;;5.40;99.90;;;;;;5091402;28;20528;-91
2023/01/23 12:38:46;;;;;;;15.13;6.35;;;5.40;99.90;;;;;;5096304;28;20566;-90
2023/01/23 12:41:35;;;;;;;13.63;7.00;;;5.40;99.90;;;;;;5096147;28;20035;-90
2023/01/23 12:44:19;;;;;;;12.43;5.97;;;5.40;99.90;;;;;;5096095;28;20127;-91
2023/01/23 12:47:00;;;;;;;11.60;6.65;;;5.40;99.90;;;;;;5096415;28;20085;-91
2023/01/23 12:49:38;;;;;;;12.77;6.63;;;5.40;99.90;;;;;;5096303;28;20065;-91
2023/01/23 12:52:33;;;;;;;13.63;7.00;;;5.40;99.90;;;;;;5112448;28;20374;-92
2023/01/23 12:55:06;;;;;;;12.52;7.10;;;5.40;99.90;;;;;;5113417;28;20096;-92
2023/01/23 12:57:39;;;;;;;13.25;6.40;;;5.40;99.90;;;;;;5113123;28;20050;-91
2023/01/23 13:00:19;;;;;;;14.32;6.40;;;5.40;99.90;;;;;;5096307;28;20035;-91
2023/01/23 13:02:58;;;;;;;12.43;6.93;;;5.50;99.90;;;;;;5096080;28;20406;-91
2023/01/23 13:05:33;;;;;;;16.08;6.20;;;5.40;99.90;;;;;;5113069;28;20050;-91
2023/01/23 13:08:06;;;;;;;11.98;6.30;;;5.40;99.90;;;;;;5091821;28;20083;-91
2023/01/23 13:13:26;;;;;;;12.57;6.30;;;5.50;99.90;;;;;;5112355;28;20446;-91